sensor_id;sensor_type;location;lat;lon;timestamp;P1;durP1;ratioP1;P2;durP2;ratioP2
30147;SDS011;16960;49.404;8.248;2023-05-07T00:00:39;5.50;;;2.70;;
30147;SDS011;16960;49.404;8.248;2023-05-07T00:03:07;7.20;;;2.80;;
30147;SDS011;16960;49.404;8.248;2023-05-07T00:05:36;7.77;;;2.60;;
30147;SDS011;16960;49.404;8.248;2023-05-07T00:08:04;5.90;;;2.30;;
30147;SDS011;16960;49.404;8.248;2023-05-07T00:10:31;4.93;;;2.37;;
30147;SDS011;16960;49.404;8.248;2023-05-07T00:12:58;4.70;;;2.83;;
30147;SDS011;16960;49.404;8.248;2023-05-07T00:15:25;5.60;;;2.53;;
30147;SDS011;16960;49.404;8.248;2023-05-07T00:17:53;4.20;;;2.23;;
30147;SDS011;16960;49.404;8.248;2023-05-07T00:20:20;4.70;;;2.50;;
30147;SDS011;16960;49.404;8.248;2023-05-07T00:22:48;5.30;;;2.60;;
30147;SDS011;16960;49.404;8.248;2023-05-07T00:25:15;5.03;;;2.50;;
30147;SDS011;16960;49.404;8.248;2023-05-07T00:27:44;4.40;;;2.30;;
30147;SDS011;16960;49.404;8.248;2023-05-07T00:30:11;4.03;;;2.40;;
30147;SDS011;16960;49.404;8.248;2023-05-07T00:32:39;3.77;;;2.07;;
30147;SDS011;16960;49.404;8.248;2023-05-07T00:35:06;4.10;;;2.30;;
30147;SDS011;16960;49.404;8.248;2023-05-07T00:37:34;2.50;;;2.17;;
30147;SDS011;16960;49.404;8.248;2023-05-07T00:40:02;4.53;;;2.50;;
30147;SDS011;16960;49.404;8.248;2023-05-07T00:42:32;4.43;;;2.23;;
30147;SDS011;16960;49.404;8.248;2023-05-07T00:44:59;5.23;;;2.60;;
30147;SDS011;16960;49.404;8.248;2023-05-07T00:47:26;3.37;;;2.40;;
30147;SDS011;16960;49.404;8.248;2023-05-07T00:49:53;3.30;;;2.10;;
30147;SDS011;16960;49.404;8.248;2023-05-07T00:52:20;3.93;;;2.20;;
30147;SDS011;16960;49.404;8.248;2023-05-07T00:54:50;2.83;;;2.03;;
30147;SDS011;16960;49.404;8.248;2023-05-07T00:57:18;2.90;;;2.10;;
30147;SDS011;16960;49.404;8.248;2023-05-07T00:59:46;3.83;;;2.10;;
30147;SDS011;16960;49.404;8.248;2023-05-07T01:02:13;3.33;;;2.13;;
30147;SDS011;16960;49.404;8.248;2023-05-07T01:04:40;3.23;;;2.00;;
30147;SDS011;16960;49.404;8.248;2023-05-07T01:07:07;4.80;;;2.50;;
30147;SDS011;16960;49.404;8.248;2023-05-07T01:09:34;4.03;;;2.40;;
30147;SDS011;16960;49.404;8.248;2023-05-07T01:12:02;4.23;;;2.07;;
30147;SDS011;16960;49.404;8.248;2023-05-07T01:14:31;3.13;;;2.17;;
30147;SDS011;16960;49.404;8.248;2023-05-07T01:17:00;3.07;;;2.07;;
30147;SDS011;16960;49.404;8.248;2023-05-07T01:19:28;4.00;;;2.00;;
30147;SDS011;16960;49.404;8.248;2023-05-07T01:21:56;3.10;;;1.80;;
30147;SDS011;16960;49.404;8.248;2023-05-07T01:24:30;3.70;;;2.27;;
30147;SDS011;16960;49.404;8.248;2023-05-07T01:26:58;3.40;;;2.20;;
30147;SDS011;16960;49.404;8.248;2023-05-07T01:29:26;3.00;;;2.10;;
30147;SDS011;16960;49.404;8.248;2023-05-07T01:31:53;4.73;;;2.00;;
30147;SDS011;16960;49.404;8.248;2023-05-07T01:34:23;2.27;;;1.73;;
30147;SDS011;16960;49.404;8.248;2023-05-07T01:36:52;2.63;;;1.63;;
30147;SDS011;16960;49.404;8.248;2023-05-07T01:39:23;2.73;;;2.00;;
30147;SDS011;16960;49.404;8.248;2023-05-07T01:41:52;4.00;;;2.20;;
30147;SDS011;16960;49.404;8.248;2023-05-07T01:44:21;3.33;;;1.80;;
30147;SDS011;16960;49.404;8.248;2023-05-07T01:46:48;2.73;;;2.17;;
30147;SDS011;16960;49.404;8.248;2023-05-07T01:49:16;2.40;;;1.70;;
30147;SDS011;16960;49.404;8.248;2023-05-07T01:51:43;2.77;;;1.80;;
30147;SDS011;16960;49.404;8.248;2023-05-07T01:54:10;2.13;;;1.90;;
30147;SDS011;16960;49.404;8.248;2023-05-07T01:56:37;3.43;;;1.77;;
30147;SDS011;16960;49.404;8.248;2023-05-07T01:59:05;2.00;;;1.80;;
30147;SDS011;16960;49.404;8.248;2023-05-07T02:01:32;2.90;;;1.60;;
30147;SDS011;16960;49.404;8.248;2023-05-07T02:03:59;2.83;;;2.23;;
30147;SDS011;16960;49.404;8.248;2023-05-07T02:06:26;2.33;;;1.90;;
30147;SDS011;16960;49.404;8.248;2023-05-07T02:08:53;3.07;;;2.00;;
30147;SDS011;16960;49.404;8.248;2023-05-07T02:11:20;3.07;;;1.60;;
30147;SDS011;16960;49.404;8.248;2023-05-07T02:13:47;3.77;;;2.60;;
30147;SDS011;16960;49.404;8.248;2023-05-07T02:16:15;3.27;;;1.80;;
30147;SDS011;16960;49.404;8.248;2023-05-07T02:18:42;2.50;;;1.80;;
30147;SDS011;16960;49.404;8.248;2023-05-07T02:21:09;2.30;;;1.50;;
30147;SDS011;16960;49.404;8.248;2023-05-07T02:23:36;3.20;;;1.93;;
30147;SDS011;16960;49.404;8.248;2023-05-07T02:26:03;2.43;;;1.83;;
30147;SDS011;16960;49.404;8.248;2023-05-07T02:28:30;1.93;;;1.50;;
30147;SDS011;16960;49.404;8.248;2023-05-07T02:30:58;2.50;;;1.60;;
30147;SDS011;16960;49.404;8.248;2023-05-07T02:33:27;1.87;;;1.50;;
30147;SDS011;16960;49.404;8.248;2023-05-07T02:35:54;2.23;;;1.40;;
30147;SDS011;16960;49.404;8.248;2023-05-07T02:38:21;2.63;;;1.67;;
30147;SDS011;16960;49.404;8.248;2023-05-07T02:40:49;1.67;;;1.30;;
30147;SDS011;16960;49.404;8.248;2023-05-07T02:43:15;2.10;;;1.60;;
30147;SDS011;16960;49.404;8.248;2023-05-07T02:45:42;1.60;;;1.50;;
30147;SDS011;16960;49.404;8.248;2023-05-07T02:48:09;2.00;;;1.43;;
30147;SDS011;16960;49.404;8.248;2023-05-07T02:50:37;2.13;;;1.47;;
30147;SDS011;16960;49.404;8.248;2023-05-07T02:53:04;2.23;;;1.37;;
30147;SDS011;16960;49.404;8.248;2023-05-07T02:55:31;2.10;;;1.70;;
30147;SDS011;16960;49.404;8.248;2023-05-07T02:57:58;2.13;;;1.30;;
30147;SDS011;16960;49.404;8.248;2023-05-07T03:00:25;2.10;;;1.33;;
30147;SDS011;16960;49.404;8.248;2023-05-07T03:02:52;2.50;;;1.80;;
30147;SDS011;16960;49.404;8.248;2023-05-07T03:05:19;2.00;;;1.50;;
30147;SDS011;16960;49.404;8.248;2023-05-07T03:07:47;1.63;;;1.17;;
30147;SDS011;16960;49.404;8.248;2023-05-07T03:10:14;2.53;;;1.40;;
30147;SDS011;16960;49.404;8.248;2023-05-07T03:12:41;2.40;;;1.30;;
30147;SDS011;16960;49.404;8.248;2023-05-07T03:15:09;2.00;;;1.10;;
30147;SDS011;16960;49.404;8.248;2023-05-07T03:17:36;1.30;;;1.20;;
30147;SDS011;16960;49.404;8.248;2023-05-07T03:20:03;1.83;;;1.53;;
30147;SDS011;16960;49.404;8.248;2023-05-07T03:22:32;2.10;;;1.40;;
30147;SDS011;16960;49.404;8.248;2023-05-07T03:25:00;2.23;;;1.20;;
30147;SDS011;16960;49.404;8.248;2023-05-07T03:27:27;1.37;;;1.10;;
30147;SDS011;16960;49.404;8.248;2023-05-07T03:29:54;2.40;;;1.40;;
30147;SDS011;16960;49.404;8.248;2023-05-07T03:32:21;2.17;;;1.47;;
30147;SDS011;16960;49.404;8.248;2023-05-07T03:34:47;1.90;;;1.53;;
30147;SDS011;16960;49.404;8.248;2023-05-07T03:37:14;1.80;;;1.33;;
30147;SDS011;16960;49.404;8.248;2023-05-07T03:39:41;2.20;;;1.50;;
30147;SDS011;16960;49.404;8.248;2023-05-07T03:42:11;2.20;;;1.70;;
30147;SDS011;16960;49.404;8.248;2023-05-07T03:44:38;2.10;;;1.50;;
30147;SDS011;16960;49.404;8.248;2023-05-07T03:47:05;1.87;;;1.40;;
30147;SDS011;16960;49.404;8.248;2023-05-07T03:49:31;1.80;;;1.40;;
30147;SDS011;16960;49.404;8.248;2023-05-07T03:51:58;1.43;;;1.30;;
30147;SDS011;16960;49.404;8.248;2023-05-07T03:54:25;3.10;;;1.60;;
30147;SDS011;16960;49.404;8.248;2023-05-07T03:56:52;1.63;;;1.10;;
30147;SDS011;16960;49.404;8.248;2023-05-07T03:59:21;2.00;;;1.40;;
30147;SDS011;16960;49.404;8.248;2023-05-07T04:01:48;1.50;;;1.13;;
30147;SDS011;16960;49.404;8.248;2023-05-07T04:04:15;3.17;;;1.37;;
30147;SDS011;16960;49.404;8.248;2023-05-07T04:06:42;2.73;;;1.47;;
30147;SDS011;16960;49.404;8.248;2023-05-07T04:09:09;1.37;;;1.13;;
30147;SDS011;16960;49.404;8.248;2023-05-07T04:11:36;1.20;;;1.10;;
30147;SDS011;16960;49.404;8.248;2023-05-07T04:14:05;1.63;;;1.20;;
30147;SDS011;16960;49.404;8.248;2023-05-07T04:16:34;2.00;;;1.30;;
30147;SDS011;16960;49.404;8.248;2023-05-07T04:19:01;1.40;;;1.30;;
30147;SDS011;16960;49.404;8.248;2023-05-07T04:21:28;2.20;;;1.53;;
30147;SDS011;16960;49.404;8.248;2023-05-07T04:23:55;1.20;;;1.10;;
30147;SDS011;16960;49.404;8.248;2023-05-07T04:26:22;1.90;;;1.50;;
30147;SDS011;16960;49.404;8.248;2023-05-07T04:28:49;1.50;;;1.10;;
30147;SDS011;16960;49.404;8.248;2023-05-07T04:31:16;1.10;;;1.00;;
30147;SDS011;16960;49.404;8.248;2023-05-07T04:33:45;2.00;;;1.20;;
30147;SDS011;16960;49.404;8.248;2023-05-07T04:36:11;1.67;;;1.37;;
30147;SDS011;16960;49.404;8.248;2023-05-07T04:38:39;1.27;;;1.17;;
30147;SDS011;16960;49.404;8.248;2023-05-07T04:41:06;1.07;;;0.93;;
30147;SDS011;16960;49.404;8.248;2023-05-07T04:43:35;1.60;;;1.27;;
30147;SDS011;16960;49.404;8.248;2023-05-07T04:46:02;2.27;;;1.70;;
30147;SDS011;16960;49.404;8.248;2023-05-07T04:48:28;1.10;;;1.00;;
30147;SDS011;16960;49.404;8.248;2023-05-07T04:50:57;1.23;;;1.13;;
30147;SDS011;16960;49.404;8.248;2023-05-07T04:53:24;1.47;;;1.33;;
30147;SDS011;16960;49.404;8.248;2023-05-07T04:55:54;1.30;;;1.20;;
30147;SDS011;16960;49.404;8.248;2023-05-07T04:58:22;1.37;;;1.10;;
30147;SDS011;16960;49.404;8.248;2023-05-07T05:00:49;1.57;;;1.30;;
30147;SDS011;16960;49.404;8.248;2023-05-07T05:03:16;1.37;;;1.20;;
30147;SDS011;16960;49.404;8.248;2023-05-07T05:05:43;1.60;;;1.50;;
30147;SDS011;16960;49.404;8.248;2023-05-07T05:08:12;1.30;;;1.10;;
30147;SDS011;16960;49.404;8.248;2023-05-07T05:10:39;1.30;;;1.20;;
30147;SDS011;16960;49.404;8.248;2023-05-07T05:13:08;1.67;;;1.33;;
30147;SDS011;16960;49.404;8.248;2023-05-07T05:15:37;1.10;;;0.83;;
30147;SDS011;16960;49.404;8.248;2023-05-07T05:18:04;1.30;;;1.20;;
30147;SDS011;16960;49.404;8.248;2023-05-07T05:20:31;1.30;;;1.20;;
30147;SDS011;16960;49.404;8.248;2023-05-07T05:22:58;1.67;;;1.13;;
30147;SDS011;16960;49.404;8.248;2023-05-07T05:25:26;1.03;;;0.90;;
30147;SDS011;16960;49.404;8.248;2023-05-07T05:27:53;1.30;;;1.20;;
30147;SDS011;16960;49.404;8.248;2023-05-07T05:30:20;1.13;;;1.03;;
30147;SDS011;16960;49.404;8.248;2023-05-07T05:32:47;1.97;;;1.10;;
30147;SDS011;16960;49.404;8.248;2023-05-07T05:35:14;1.53;;;1.17;;
30147;SDS011;16960;49.404;8.248;2023-05-07T05:37:41;4.10;;;1.30;;
30147;SDS011;16960;49.404;8.248;2023-05-07T05:40:08;1.30;;;1.20;;
30147;SDS011;16960;49.404;8.248;2023-05-07T05:42:37;1.10;;;1.00;;
30147;SDS011;16960;49.404;8.248;2023-05-07T05:45:04;1.70;;;1.33;;
30147;SDS011;16960;49.404;8.248;2023-05-07T05:47:32;1.83;;;1.10;;
30147;SDS011;16960;49.404;8.248;2023-05-07T05:49:59;1.00;;;0.90;;
30147;SDS011;16960;49.404;8.248;2023-05-07T05:52:26;1.40;;;1.30;;
30147;SDS011;16960;49.404;8.248;2023-05-07T05:54:53;1.50;;;1.40;;
30147;SDS011;16960;49.404;8.248;2023-05-07T05:57:20;1.03;;;0.93;;
30147;SDS011;16960;49.404;8.248;2023-05-07T05:59:48;1.17;;;0.90;;
30147;SDS011;16960;49.404;8.248;2023-05-07T06:02:15;1.10;;;1.00;;
30147;SDS011;16960;49.404;8.248;2023-05-07T06:04:42;1.50;;;1.40;;
30147;SDS011;16960;49.404;8.248;2023-05-07T06:07:09;1.50;;;1.40;;
30147;SDS011;16960;49.404;8.248;2023-05-07T06:09:36;1.10;;;1.00;;
30147;SDS011;16960;49.404;8.248;2023-05-07T06:12:03;1.20;;;1.10;;
30147;SDS011;16960;49.404;8.248;2023-05-07T06:14:30;2.20;;;1.00;;
30147;SDS011;16960;49.404;8.248;2023-05-07T06:16:58;1.20;;;1.10;;
30147;SDS011;16960;49.404;8.248;2023-05-07T06:19:25;1.70;;;1.20;;
30147;SDS011;16960;49.404;8.248;2023-05-07T06:21:53;1.00;;;1.00;;
30147;SDS011;16960;49.404;8.248;2023-05-07T06:24:21;2.13;;;1.30;;
30147;SDS011;16960;49.404;8.248;2023-05-07T06:26:48;1.33;;;1.23;;
30147;SDS011;16960;49.404;8.248;2023-05-07T06:29:15;1.63;;;1.00;;
30147;SDS011;16960;49.404;8.248;2023-05-07T06:31:42;1.10;;;1.00;;
30147;SDS011;16960;49.404;8.248;2023-05-07T06:34:10;1.10;;;1.00;;
30147;SDS011;16960;49.404;8.248;2023-05-07T06:36:39;0.90;;;0.70;;
30147;SDS011;16960;49.404;8.248;2023-05-07T06:39:06;1.00;;;0.90;;
30147;SDS011;16960;49.404;8.248;2023-05-07T06:41:33;1.10;;;1.00;;
30147;SDS011;16960;49.404;8.248;2023-05-07T06:44:00;3.07;;;0.97;;
30147;SDS011;16960;49.404;8.248;2023-05-07T06:46:27;1.50;;;1.07;;
30147;SDS011;16960;49.404;8.248;2023-05-07T06:48:55;3.70;;;1.00;;
30147;SDS011;16960;49.404;8.248;2023-05-07T06:51:24;1.90;;;1.20;;
30147;SDS011;16960;49.404;8.248;2023-05-07T06:53:51;1.10;;;0.97;;
30147;SDS011;16960;49.404;8.248;2023-05-07T06:56:18;1.17;;;0.83;;
30147;SDS011;16960;49.404;8.248;2023-05-07T06:58:46;4.00;;;1.20;;
30147;SDS011;16960;49.404;8.248;2023-05-07T07:01:13;4.60;;;1.33;;
30147;SDS011;16960;49.404;8.248;2023-05-07T07:03:40;1.87;;;1.40;;
30147;SDS011;16960;49.404;8.248;2023-05-07T07:06:07;6.70;;;1.40;;
30147;SDS011;16960;49.404;8.248;2023-05-07T07:08:35;5.27;;;1.57;;
30147;SDS011;16960;49.404;8.248;2023-05-07T07:11:03;1.30;;;1.20;;
30147;SDS011;16960;49.404;8.248;2023-05-07T07:13:30;3.30;;;1.23;;
30147;SDS011;16960;49.404;8.248;2023-05-07T07:15:57;2.90;;;1.20;;
30147;SDS011;16960;49.404;8.248;2023-05-07T07:18:24;3.70;;;1.87;;
30147;SDS011;16960;49.404;8.248;2023-05-07T07:20:51;4.10;;;1.47;;
30147;SDS011;16960;49.404;8.248;2023-05-07T07:23:18;2.10;;;1.30;;
30147;SDS011;16960;49.404;8.248;2023-05-07T07:25:46;1.70;;;1.33;;
30147;SDS011;16960;49.404;8.248;2023-05-07T07:28:13;2.67;;;1.30;;
30147;SDS011;16960;49.404;8.248;2023-05-07T07:30:40;3.30;;;1.40;;
30147;SDS011;16960;49.404;8.248;2023-05-07T07:33:07;1.17;;;1.07;;
30147;SDS011;16960;49.404;8.248;2023-05-07T07:35:34;1.40;;;1.17;;
30147;SDS011;16960;49.404;8.248;2023-05-07T07:38:01;1.40;;;1.30;;
30147;SDS011;16960;49.404;8.248;2023-05-07T07:40:28;1.97;;;1.27;;
30147;SDS011;16960;49.404;8.248;2023-05-07T07:42:57;1.97;;;1.20;;
30147;SDS011;16960;49.404;8.248;2023-05-07T07:45:24;1.70;;;1.40;;
30147;SDS011;16960;49.404;8.248;2023-05-07T07:47:51;2.20;;;1.37;;
30147;SDS011;16960;49.404;8.248;2023-05-07T07:50:18;1.63;;;1.30;;
30147;SDS011;16960;49.404;8.248;2023-05-07T07:52:45;1.17;;;1.00;;
30147;SDS011;16960;49.404;8.248;2023-05-07T07:55:12;2.67;;;1.30;;
30147;SDS011;16960;49.404;8.248;2023-05-07T07:57:43;5.77;;;1.50;;
30147;SDS011;16960;49.404;8.248;2023-05-07T08:00:12;1.33;;;1.23;;
30147;SDS011;16960;49.404;8.248;2023-05-07T08:02:39;2.77;;;1.23;;
30147;SDS011;16960;49.404;8.248;2023-05-07T08:05:07;2.57;;;1.57;;
30147;SDS011;16960;49.404;8.248;2023-05-07T08:07:34;1.60;;;1.50;;
30147;SDS011;16960;49.404;8.248;2023-05-07T08:10:01;4.73;;;1.40;;
30147;SDS011;16960;49.404;8.248;2023-05-07T08:12:28;1.40;;;1.30;;
30147;SDS011;16960;49.404;8.248;2023-05-07T08:14:55;1.63;;;1.53;;
30147;SDS011;16960;49.404;8.248;2023-05-07T08:17:23;1.77;;;1.57;;
30147;SDS011;16960;49.404;8.248;2023-05-07T08:19:50;2.20;;;1.53;;
30147;SDS011;16960;49.404;8.248;2023-05-07T08:22:17;2.17;;;1.17;;
30147;SDS011;16960;49.404;8.248;2023-05-07T08:24:44;1.73;;;1.30;;
30147;SDS011;16960;49.404;8.248;2023-05-07T08:27:11;4.87;;;1.60;;
30147;SDS011;16960;49.404;8.248;2023-05-07T08:29:38;1.60;;;1.50;;
30147;SDS011;16960;49.404;8.248;2023-05-07T08:32:05;2.77;;;1.20;;
30147;SDS011;16960;49.404;8.248;2023-05-07T08:34:33;1.47;;;1.37;;
30147;SDS011;16960;49.404;8.248;2023-05-07T08:37:00;1.50;;;1.40;;
30147;SDS011;16960;49.404;8.248;2023-05-07T08:39:27;4.13;;;1.70;;
30147;SDS011;16960;49.404;8.248;2023-05-07T08:41:55;1.93;;;1.70;;
30147;SDS011;16960;49.404;8.248;2023-05-07T08:44:23;2.27;;;1.20;;
30147;SDS011;16960;49.404;8.248;2023-05-07T08:46:53;2.30;;;1.33;;
30147;SDS011;16960;49.404;8.248;2023-05-07T08:49:22;6.30;;;2.10;;
30147;SDS011;16960;49.404;8.248;2023-05-07T08:51:51;2.13;;;1.60;;
30147;SDS011;16960;49.404;8.248;2023-05-07T08:54:18;2.67;;;2.47;;
30147;SDS011;16960;49.404;8.248;2023-05-07T08:56:46;2.33;;;1.93;;
30147;SDS011;16960;49.404;8.248;2023-05-07T08:59:13;2.30;;;2.10;;
30147;SDS011;16960;49.404;8.248;2023-05-07T09:01:40;2.10;;;1.90;;
30147;SDS011;16960;49.404;8.248;2023-05-07T09:04:07;2.80;;;2.50;;
30147;SDS011;16960;49.404;8.248;2023-05-07T09:06:34;4.47;;;2.40;;
30147;SDS011;16960;49.404;8.248;2023-05-07T09:09:04;3.30;;;1.70;;
30147;SDS011;16960;49.404;8.248;2023-05-07T09:11:31;2.00;;;1.63;;
30147;SDS011;16960;49.404;8.248;2023-05-07T09:13:58;1.73;;;1.50;;
30147;SDS011;16960;49.404;8.248;2023-05-07T09:16:26;2.43;;;1.97;;
30147;SDS011;16960;49.404;8.248;2023-05-07T09:18:54;1.77;;;1.67;;
30147;SDS011;16960;49.404;8.248;2023-05-07T09:21:23;2.90;;;1.93;;
30147;SDS011;16960;49.404;8.248;2023-05-07T09:23:51;3.60;;;1.97;;
30147;SDS011;16960;49.404;8.248;2023-05-07T09:26:19;3.73;;;1.57;;
30147;SDS011;16960;49.404;8.248;2023-05-07T09:28:47;2.17;;;1.90;;
30147;SDS011;16960;49.404;8.248;2023-05-07T09:31:14;2.20;;;2.00;;
30147;SDS011;16960;49.404;8.248;2023-05-07T09:33:41;3.10;;;1.80;;
30147;SDS011;16960;49.404;8.248;2023-05-07T09:36:09;1.70;;;1.60;;
30147;SDS011;16960;49.404;8.248;2023-05-07T09:38:37;1.77;;;1.57;;
30147;SDS011;16960;49.404;8.248;2023-05-07T09:41:05;1.93;;;1.73;;
30147;SDS011;16960;49.404;8.248;2023-05-07T09:43:34;1.83;;;1.70;;
30147;SDS011;16960;49.404;8.248;2023-05-07T09:46:02;1.90;;;1.80;;
30147;SDS011;16960;49.404;8.248;2023-05-07T09:48:32;2.50;;;1.77;;
30147;SDS011;16960;49.404;8.248;2023-05-07T09:51:05;2.17;;;1.73;;
30147;SDS011;16960;49.404;8.248;2023-05-07T09:53:37;1.97;;;1.80;;
30147;SDS011;16960;49.404;8.248;2023-05-07T09:56:06;1.60;;;1.50;;
30147;SDS011;16960;49.404;8.248;2023-05-07T09:58:34;2.20;;;1.77;;
30147;SDS011;16960;49.404;8.248;2023-05-07T10:01:04;1.60;;;1.50;;
30147;SDS011;16960;49.404;8.248;2023-05-07T10:03:31;2.00;;;1.80;;
30147;SDS011;16960;49.404;8.248;2023-05-07T10:06:01;3.60;;;2.30;;
30147;SDS011;16960;49.404;8.248;2023-05-07T10:08:30;2.30;;;2.10;;
30147;SDS011;16960;49.404;8.248;2023-05-07T10:10:57;2.47;;;2.30;;
30147;SDS011;16960;49.404;8.248;2023-05-07T10:13:24;2.43;;;2.23;;
30147;SDS011;16960;49.404;8.248;2023-05-07T10:15:52;2.90;;;2.40;;
30147;SDS011;16960;49.404;8.248;2023-05-07T10:18:21;1.90;;;1.80;;
30147;SDS011;16960;49.404;8.248;2023-05-07T10:20:54;2.60;;;2.40;;
30147;SDS011;16960;49.404;8.248;2023-05-07T10:23:24;1.83;;;1.73;;
30147;SDS011;16960;49.404;8.248;2023-05-07T10:25:52;2.17;;;1.90;;
30147;SDS011;16960;49.404;8.248;2023-05-07T10:28:20;1.80;;;1.70;;
30147;SDS011;16960;49.404;8.248;2023-05-07T10:30:55;2.53;;;1.87;;
30147;SDS011;16960;49.404;8.248;2023-05-07T10:33:29;1.73;;;1.63;;
30147;SDS011;16960;49.404;8.248;2023-05-07T10:35:58;2.40;;;2.20;;
30147;SDS011;16960;49.404;8.248;2023-05-07T10:38:29;2.60;;;2.20;;
30147;SDS011;16960;49.404;8.248;2023-05-07T10:40:57;3.33;;;2.67;;
30147;SDS011;16960;49.404;8.248;2023-05-07T10:43:24;1.80;;;1.63;;
30147;SDS011;16960;49.404;8.248;2023-05-07T10:46:11;2.30;;;2.20;;
30147;SDS011;16960;49.404;8.248;2023-05-07T10:51:37;1.70;;;1.60;;
30147;SDS011;16960;49.404;8.248;2023-05-07T10:54:17;1.83;;;1.67;;
30147;SDS011;16960;49.404;8.248;2023-05-07T10:56:45;2.37;;;2.17;;
30147;SDS011;16960;49.404;8.248;2023-05-07T11:02:08;1.93;;;1.70;;
30147;SDS011;16960;49.404;8.248;2023-05-07T11:04:36;2.23;;;2.03;;
30147;SDS011;16960;49.404;8.248;2023-05-07T11:09:59;2.20;;;2.00;;
30147;SDS011;16960;49.404;8.248;2023-05-07T11:15:38;2.20;;;2.00;;
30147;SDS011;16960;49.404;8.248;2023-05-07T11:18:11;3.00;;;2.20;;
30147;SDS011;16960;49.404;8.248;2023-05-07T11:20:45;2.93;;;2.07;;
30147;SDS011;16960;49.404;8.248;2023-05-07T11:26:45;2.00;;;1.80;;
30147;SDS011;16960;49.404;8.248;2023-05-07T11:29:14;3.03;;;2.23;;
30147;SDS011;16960;49.404;8.248;2023-05-07T11:31:42;3.70;;;2.03;;
30147;SDS011;16960;49.404;8.248;2023-05-07T11:34:10;2.40;;;2.20;;
30147;SDS011;16960;49.404;8.248;2023-05-07T11:36:41;3.50;;;2.50;;
30147;SDS011;16960;49.404;8.248;2023-05-07T11:41:56;2.30;;;2.10;;
30147;SDS011;16960;49.404;8.248;2023-05-07T11:44:23;3.73;;;2.00;;
30147;SDS011;16960;49.404;8.248;2023-05-07T11:46:50;3.67;;;2.47;;
30147;SDS011;16960;49.404;8.248;2023-05-07T11:49:18;2.97;;;2.67;;
30147;SDS011;16960;49.404;8.248;2023-05-07T11:51:45;2.33;;;2.13;;
30147;SDS011;16960;49.404;8.248;2023-05-07T11:54:15;2.60;;;2.00;;
30147;SDS011;16960;49.404;8.248;2023-05-07T11:56:43;1.83;;;1.73;;
30147;SDS011;16960;49.404;8.248;2023-05-07T11:59:11;4.60;;;2.27;;
30147;SDS011;16960;49.404;8.248;2023-05-07T12:01:38;3.80;;;2.80;;
30147;SDS011;16960;49.404;8.248;2023-05-07T12:04:04;3.37;;;2.10;;
30147;SDS011;16960;49.404;8.248;2023-05-07T12:06:35;5.70;;;2.50;;
30147;SDS011;16960;49.404;8.248;2023-05-07T12:09:03;4.03;;;2.30;;
30147;SDS011;16960;49.404;8.248;2023-05-07T12:11:32;3.47;;;2.30;;
30147;SDS011;16960;49.404;8.248;2023-05-07T12:13:59;2.33;;;2.13;;
30147;SDS011;16960;49.404;8.248;2023-05-07T12:16:26;2.43;;;2.00;;
30147;SDS011;16960;49.404;8.248;2023-05-07T12:18:53;2.30;;;2.10;;
30147;SDS011;16960;49.404;8.248;2023-05-07T12:21:21;4.90;;;2.40;;
30147;SDS011;16960;49.404;8.248;2023-05-07T12:23:51;4.87;;;2.20;;
30147;SDS011;16960;49.404;8.248;2023-05-07T12:26:18;4.73;;;2.67;;
30147;SDS011;16960;49.404;8.248;2023-05-07T12:28:46;2.50;;;2.30;;
30147;SDS011;16960;49.404;8.248;2023-05-07T12:31:14;3.63;;;2.47;;
30147;SDS011;16960;49.404;8.248;2023-05-07T12:33:42;3.73;;;2.43;;
30147;SDS011;16960;49.404;8.248;2023-05-07T12:36:11;2.93;;;2.73;;
30147;SDS011;16960;49.404;8.248;2023-05-07T12:38:39;2.40;;;2.20;;
30147;SDS011;16960;49.404;8.248;2023-05-07T12:41:09;4.03;;;3.30;;
30147;SDS011;16960;49.404;8.248;2023-05-07T12:43:37;2.60;;;2.40;;
30147;SDS011;16960;49.404;8.248;2023-05-07T12:46:04;2.80;;;2.60;;
30147;SDS011;16960;49.404;8.248;2023-05-07T12:48:32;4.13;;;3.00;;
30147;SDS011;16960;49.404;8.248;2023-05-07T12:51:00;3.13;;;2.80;;
30147;SDS011;16960;49.404;8.248;2023-05-07T12:53:28;2.50;;;2.30;;
30147;SDS011;16960;49.404;8.248;2023-05-07T12:55:56;3.70;;;2.73;;
30147;SDS011;16960;49.404;8.248;2023-05-07T12:58:26;2.90;;;2.60;;
30147;SDS011;16960;49.404;8.248;2023-05-07T13:00:54;2.40;;;2.20;;
30147;SDS011;16960;49.404;8.248;2023-05-07T13:03:26;2.93;;;2.40;;
30147;SDS011;16960;49.404;8.248;2023-05-07T13:05:55;3.87;;;2.23;;
30147;SDS011;16960;49.404;8.248;2023-05-07T13:08:25;2.80;;;2.60;;
30147;SDS011;16960;49.404;8.248;2023-05-07T13:10:56;2.73;;;2.53;;
30147;SDS011;16960;49.404;8.248;2023-05-07T13:13:26;2.63;;;2.43;;
30147;SDS011;16960;49.404;8.248;2023-05-07T13:15:53;2.93;;;2.73;;
30147;SDS011;16960;49.404;8.248;2023-05-07T13:18:19;2.47;;;2.27;;
30147;SDS011;16960;49.404;8.248;2023-05-07T13:20:46;2.43;;;2.23;;
30147;SDS011;16960;49.404;8.248;2023-05-07T13:23:13;2.70;;;2.47;;
30147;SDS011;16960;49.404;8.248;2023-05-07T13:25:40;4.10;;;3.33;;
30147;SDS011;16960;49.404;8.248;2023-05-07T13:28:07;5.50;;;3.57;;
30147;SDS011;16960;49.404;8.248;2023-05-07T13:30:35;3.30;;;2.97;;
30147;SDS011;16960;49.404;8.248;2023-05-07T13:33:02;2.93;;;2.67;;
30147;SDS011;16960;49.404;8.248;2023-05-07T13:35:29;4.53;;;2.80;;
30147;SDS011;16960;49.404;8.248;2023-05-07T13:37:56;3.93;;;3.13;;
30147;SDS011;16960;49.404;8.248;2023-05-07T13:40:23;2.53;;;2.37;;
30147;SDS011;16960;49.404;8.248;2023-05-07T13:42:50;3.00;;;2.67;;
30147;SDS011;16960;49.404;8.248;2023-05-07T13:45:17;4.07;;;3.30;;
30147;SDS011;16960;49.404;8.248;2023-05-07T13:47:46;4.17;;;3.30;;
30147;SDS011;16960;49.404;8.248;2023-05-07T13:50:14;8.77;;;3.40;;
30147;SDS011;16960;49.404;8.248;2023-05-07T13:52:42;3.83;;;2.97;;
30147;SDS011;16960;49.404;8.248;2023-05-07T13:55:12;3.40;;;2.83;;
30147;SDS011;16960;49.404;8.248;2023-05-07T13:57:39;3.13;;;2.83;;
30147;SDS011;16960;49.404;8.248;2023-05-07T14:00:07;3.50;;;2.93;;
30147;SDS011;16960;49.404;8.248;2023-05-07T14:02:34;4.30;;;2.70;;
30147;SDS011;16960;49.404;8.248;2023-05-07T14:05:03;2.70;;;2.50;;
30147;SDS011;16960;49.404;8.248;2023-05-07T14:07:30;2.73;;;2.50;;
30147;SDS011;16960;49.404;8.248;2023-05-07T14:09:57;3.17;;;2.90;;
30147;SDS011;16960;49.404;8.248;2023-05-07T14:12:24;2.87;;;2.57;;
30147;SDS011;16960;49.404;8.248;2023-05-07T14:14:51;4.87;;;2.40;;
30147;SDS011;16960;49.404;8.248;2023-05-07T14:17:18;3.70;;;2.80;;
30147;SDS011;16960;49.404;8.248;2023-05-07T14:19:45;3.07;;;2.77;;
30147;SDS011;16960;49.404;8.248;2023-05-07T14:22:14;4.80;;;2.40;;
30147;SDS011;16960;49.404;8.248;2023-05-07T14:24:41;2.67;;;2.47;;
30147;SDS011;16960;49.404;8.248;2023-05-07T14:27:08;3.80;;;3.17;;
30147;SDS011;16960;49.404;8.248;2023-05-07T14:29:35;3.00;;;2.80;;
30147;SDS011;16960;49.404;8.248;2023-05-07T14:32:01;2.90;;;2.70;;
30147;SDS011;16960;49.404;8.248;2023-05-07T14:34:29;3.10;;;2.90;;
30147;SDS011;16960;49.404;8.248;2023-05-07T14:36:56;3.10;;;2.13;;
30147;SDS011;16960;49.404;8.248;2023-05-07T14:39:24;2.97;;;2.73;;
30147;SDS011;16960;49.404;8.248;2023-05-07T14:41:51;4.57;;;2.80;;
30147;SDS011;16960;49.404;8.248;2023-05-07T14:44:19;2.83;;;2.63;;
30147;SDS011;16960;49.404;8.248;2023-05-07T14:46:46;4.73;;;2.80;;
30147;SDS011;16960;49.404;8.248;2023-05-07T14:49:13;2.87;;;2.10;;
30147;SDS011;16960;49.404;8.248;2023-05-07T14:51:42;2.93;;;2.67;;
30147;SDS011;16960;49.404;8.248;2023-05-07T14:54:10;2.63;;;2.23;;
30147;SDS011;16960;49.404;8.248;2023-05-07T14:56:38;6.43;;;2.27;;
30147;SDS011;16960;49.404;8.248;2023-05-07T14:59:05;2.80;;;2.60;;
30147;SDS011;16960;49.404;8.248;2023-05-07T15:01:33;3.17;;;2.77;;
30147;SDS011;16960;49.404;8.248;2023-05-07T15:04:01;3.13;;;2.57;;
30147;SDS011;16960;49.404;8.248;2023-05-07T15:06:29;2.67;;;2.47;;
30147;SDS011;16960;49.404;8.248;2023-05-07T15:08:56;3.67;;;3.37;;